createdAt,value
2018-02-22T00:01:35.887Z,41.70
2018-02-22T00:04:03.350Z,44.05
2018-02-22T00:06:30.774Z,44.72
2018-02-22T00:08:58.194Z,50.60
2018-02-22T00:11:25.606Z,45.05
2018-02-22T00:13:53.058Z,43.50
2018-02-22T00:16:20.515Z,44.88
2018-02-22T00:18:47.985Z,45.92
2018-02-22T00:21:15.416Z,43.08
2018-02-22T00:23:43.681Z,43.55
2018-02-22T00:26:11.093Z,50.88
2018-02-22T00:28:38.520Z,48.22
2018-02-22T00:31:05.930Z,44.92
2018-02-22T00:33:33.349Z,46.88
2018-02-22T00:36:00.782Z,47.45
2018-02-22T00:38:28.249Z,47.85
2018-02-22T00:40:56.451Z,45.17
2018-02-22T00:43:23.889Z,50.58
2018-02-22T00:45:51.306Z,43.15
2018-02-22T00:48:18.736Z,47.35
2018-02-22T00:50:46.149Z,41.97
2018-02-22T00:53:13.574Z,44.97
2018-02-22T00:55:40.982Z,42.08
2018-02-22T00:58:08.386Z,45.58
2018-02-22T01:00:35.797Z,43.58
2018-02-22T01:03:03.205Z,46.83
2018-02-22T01:05:30.732Z,43.90
2018-02-22T01:07:58.146Z,47.28
2018-02-22T01:10:26.383Z,41.92
2018-02-22T01:12:53.793Z,47.90
2018-02-22T01:15:21.244Z,48.58
2018-02-22T01:17:48.693Z,42.88
2018-02-22T01:20:16.206Z,45.65
2018-02-22T01:22:43.602Z,41.35
2018-02-22T01:25:11.825Z,41.53
2018-02-22T01:27:39.233Z,49.85
2018-02-22T01:30:06.666Z,42.00
2018-02-22T01:32:34.106Z,49.58
2018-02-22T01:35:01.524Z,49.10
2018-02-22T01:37:29.024Z,48.63
2018-02-22T01:39:57.237Z,44.67
2018-02-22T01:42:24.661Z,47.78
2018-02-22T01:44:52.071Z,45.45
2018-02-22T01:47:19.530Z,51.30
2018-02-22T01:49:46.949Z,50.70
2018-02-22T01:52:14.406Z,43.47
2018-02-22T01:54:43.381Z,48.53
2018-02-22T01:57:11.633Z,52.30
2018-02-22T01:59:39.044Z,52.30
2018-02-22T02:02:07.249Z,49.25
2018-02-22T02:04:35.410Z,52.55
2018-02-22T02:07:02.851Z,47.30
2018-02-22T02:09:30.943Z,45.55
2018-02-22T02:11:59.129Z,51.50
2018-02-22T02:14:26.789Z,47.40
2018-02-22T02:16:54.272Z,48.17
2018-02-22T02:19:21.721Z,50.92
2018-02-22T02:21:49.136Z,51.17
2018-02-22T02:24:16.543Z,50.72
2018-02-22T02:26:43.980Z,50.67
2018-02-22T02:29:11.402Z,47.22
2018-02-22T02:31:38.818Z,45.47
2018-02-22T02:34:07.043Z,59.72
2018-02-22T02:36:34.470Z,50.92
2018-02-22T02:39:01.880Z,49.30
2018-02-22T02:41:29.301Z,45.83
2018-02-22T02:43:56.702Z,47.80
2018-02-22T02:46:24.115Z,45.88
2018-02-22T02:48:51.536Z,52.97
2018-02-22T02:51:18.964Z,46.67
2018-02-22T02:53:46.399Z,60.00
2018-02-22T02:56:14.578Z,44.78
2018-02-22T02:58:42.026Z,45.35
2018-02-22T03:01:09.495Z,49.80
2018-02-22T03:03:36.960Z,49.90
2018-02-22T03:06:04.393Z,44.97
2018-02-22T03:08:31.803Z,46.90
2018-02-22T03:10:59.214Z,50.33
2018-02-22T03:13:26.633Z,44.28
2018-02-22T03:15:54.043Z,47.03
2018-02-22T03:18:22.253Z,42.42
2018-02-22T03:20:49.721Z,46.53
2018-02-22T03:23:18.027Z,46.28
2018-02-22T03:25:45.445Z,48.13
2018-02-22T03:28:12.858Z,44.08
2018-02-22T03:30:40.311Z,52.08
2018-02-22T03:33:07.729Z,45.80
2018-02-22T03:35:35.147Z,44.35
2018-02-22T03:38:02.579Z,45.00
2018-02-22T03:40:30.093Z,48.85
2018-02-22T03:42:57.505Z,46.58
2018-02-22T03:45:24.934Z,54.75
2018-02-22T03:47:52.353Z,49.53
2018-02-22T03:50:19.773Z,44.55
2018-02-22T03:52:47.227Z,50.10
2018-02-22T03:55:14.663Z,49.58
2018-02-22T03:57:42.073Z,43.80
2018-02-22T04:00:09.495Z,47.08
2018-02-22T04:02:37.669Z,48.30
2018-02-22T04:05:05.110Z,45.33
2018-02-22T04:07:32.577Z,50.35
2018-02-22T04:09:59.989Z,47.92
2018-02-22T04:12:27.417Z,42.70
2018-02-22T04:14:54.841Z,49.95
2018-02-22T04:17:23.046Z,53.42
2018-02-22T04:19:50.475Z,50.20
2018-02-22T04:22:17.882Z,59.85
2018-02-22T04:24:45.382Z,47.83
2018-02-22T04:27:12.790Z,42.83
2018-02-22T04:29:40.977Z,51.13
2018-02-22T04:32:09.183Z,48.53
2018-02-22T04:34:36.663Z,56.83
2018-02-22T04:37:04.064Z,44.55
2018-02-22T04:39:31.486Z,52.45
2018-02-22T04:41:58.910Z,54.45
2018-02-22T04:44:26.434Z,51.05
2018-02-22T04:46:53.893Z,47.30
2018-02-22T04:49:21.390Z,48.58
2018-02-22T04:51:48.797Z,56.15
2018-02-22T04:54:16.987Z,52.67
2018-02-22T04:56:44.490Z,51.78
2018-02-22T04:59:11.953Z,49.00
2018-02-22T05:45:20.818Z,49.45
2018-02-22T05:47:48.248Z,58.60
2018-02-22T05:50:16.475Z,57.38
2018-02-22T05:52:43.907Z,56.50
2018-02-22T05:55:11.388Z,62.40
2018-02-22T05:57:38.801Z,58.75
2018-02-22T06:00:06.218Z,55.60
2018-02-22T06:02:33.684Z,56.53
2018-02-22T06:05:01.065Z,51.10
2018-02-22T06:07:28.473Z,64.20
2018-02-22T06:09:55.997Z,57.35
2018-02-22T06:12:23.414Z,56.28
2018-02-22T06:14:50.830Z,54.55
2018-02-22T06:17:18.248Z,61.97
2018-02-22T06:19:45.685Z,63.08
2018-02-22T06:22:13.164Z,59.20
2018-02-22T06:24:40.572Z,58.28
2018-02-22T06:27:08.758Z,64.62
2018-02-22T06:29:36.985Z,64.72
2018-02-22T06:32:04.429Z,66.78
2018-02-22T06:34:32.623Z,58.65
2018-02-22T06:37:00.110Z,70.35
2018-02-22T06:39:27.502Z,79.50
2018-02-22T06:41:54.918Z,71.07
2018-02-22T06:44:23.117Z,66.40
2018-02-22T06:46:50.595Z,77.85
2018-02-22T06:49:18.019Z,71.93
2018-02-22T06:51:45.550Z,74.35
2018-02-22T06:54:13.016Z,75.85
2018-02-22T06:56:40.684Z,53.40
2018-02-22T06:59:08.148Z,77.40
2018-02-22T07:01:35.625Z,83.12
2018-02-22T07:04:03.045Z,86.50
2018-02-22T07:06:31.243Z,77.20
2018-02-22T07:08:59.434Z,79.65
2018-02-22T07:11:26.863Z,89.78
2018-02-22T07:13:54.297Z,83.90
2018-02-22T07:16:22.653Z,78.65
2018-02-22T07:18:50.054Z,81.60
2018-02-22T07:21:17.461Z,85.72
2018-02-22T07:23:46.423Z,76.78
2018-02-22T07:26:13.835Z,76.57
2018-02-22T07:28:41.247Z,61.03
2018-02-22T07:31:08.722Z,86.63
2018-02-22T07:33:36.869Z,58.70
2018-02-22T07:36:04.381Z,57.62
2018-02-22T07:38:31.794Z,76.43
2018-02-22T07:40:59.222Z,57.38
2018-02-22T07:43:26.650Z,78.75
2018-02-22T07:45:54.840Z,73.72
2018-02-22T07:48:23.021Z,60.22
2018-02-22T07:50:50.438Z,60.30
2018-02-22T07:53:17.850Z,74.93
2018-02-22T07:55:45.283Z,81.22
2018-02-22T07:58:12.773Z,69.45
2018-02-22T08:00:40.193Z,70.28
2018-02-22T08:03:07.599Z,74.20
2018-02-22T08:05:35.032Z,73.47
2018-02-22T08:08:02.431Z,73.50
2018-02-22T08:10:29.839Z,75.00
2018-02-22T08:12:58.054Z,82.28
2018-02-22T08:15:26.254Z,69.68
2018-02-22T08:17:53.669Z,77.00
2018-02-22T08:20:21.102Z,77.28
2018-02-22T08:22:48.541Z,87.15
2018-02-22T08:25:16.015Z,75.28
2018-02-22T08:27:44.187Z,87.12
2018-02-22T08:30:11.605Z,86.80
2018-02-22T08:32:39.018Z,87.85
2018-02-22T08:35:06.502Z,89.22
2018-02-22T08:37:33.926Z,93.43
2018-02-22T08:40:01.336Z,65.95
2018-02-22T08:42:28.769Z,80.60
2018-02-22T08:44:56.285Z,84.87
2018-02-22T08:47:23.810Z,91.07
2018-02-22T08:49:51.207Z,86.30
2018-02-22T08:52:18.738Z,79.47
2018-02-22T08:54:46.359Z,81.40
2018-02-22T08:57:13.761Z,90.50
2018-02-22T08:59:41.170Z,82.55
2018-02-22T09:02:09.355Z,87.82
2018-02-22T09:04:37.527Z,90.28
2018-02-22T09:07:04.968Z,86.75
2018-02-22T09:09:32.405Z,80.07
2018-02-22T09:11:59.818Z,77.82
2018-02-22T09:14:27.233Z,78.65
2018-02-22T09:16:54.646Z,78.95
2018-02-22T09:19:22.094Z,70.97
2018-02-22T09:21:49.504Z,69.93
2018-02-22T09:24:17.038Z,76.15
2018-02-22T09:26:44.508Z,77.60
2018-02-22T09:29:11.985Z,76.62
2018-02-22T09:31:39.435Z,78.65
2018-02-22T09:34:06.861Z,72.12
2018-02-22T09:36:34.321Z,85.85
2018-02-22T09:39:01.697Z,83.32
2018-02-22T09:41:29.214Z,81.55
2018-02-22T09:43:56.613Z,74.15
2018-02-22T09:46:24.034Z,74.37
2018-02-22T09:48:51.600Z,79.85
2018-02-22T09:51:19.052Z,45.25
2018-02-22T09:53:47.256Z,66.57
2018-02-22T09:56:14.666Z,71.18
2018-02-22T09:58:42.178Z,65.60
2018-02-22T10:01:09.612Z,81.07
2018-02-22T10:03:37.013Z,80.78
2018-02-22T10:06:05.196Z,75.85
2018-02-22T10:08:33.402Z,74.65
2018-02-22T10:11:01.547Z,73.07
2018-02-22T10:13:28.966Z,75.72
2018-02-22T10:15:56.394Z,71.95
2018-02-22T10:18:24.642Z,67.30
2018-02-22T10:20:52.074Z,74.70
2018-02-22T10:23:19.549Z,82.65
2018-02-22T10:25:46.959Z,68.07
2018-02-22T10:28:14.494Z,68.50
2018-02-22T10:30:41.914Z,69.03
2018-02-22T10:33:10.810Z,78.12
2018-02-22T10:35:38.233Z,73.87
2018-02-22T10:38:05.691Z,72.40
2018-02-22T10:40:33.110Z,68.03
2018-02-22T10:43:00.539Z,74.87
2018-02-22T10:45:28.728Z,64.85
2018-02-22T10:47:56.131Z,64.03
2018-02-22T10:50:23.557Z,72.90
2018-02-22T10:52:50.961Z,72.32
2018-02-22T10:55:18.507Z,63.28
2018-02-22T10:57:45.899Z,70.65
2018-02-22T11:00:13.335Z,61.80
2018-02-22T11:02:59.455Z,62.05
2018-02-22T11:05:26.852Z,76.35
2018-02-22T11:07:54.270Z,70.47
2018-02-22T11:10:21.690Z,60.17
2018-02-22T11:12:49.217Z,58.08
2018-02-22T11:15:17.394Z,74.03
2018-02-22T11:17:44.875Z,63.35
2018-02-22T11:20:12.273Z,52.25
2018-02-22T11:22:39.705Z,55.88
2018-02-22T11:25:07.122Z,37.40
2018-02-22T11:27:34.534Z,44.75
2018-02-22T11:30:01.965Z,44.40
2018-02-22T11:32:29.366Z,42.08
2018-02-22T11:34:56.832Z,40.58
2018-02-22T11:37:25.024Z,51.80
2018-02-22T11:39:53.219Z,45.00
2018-02-22T11:42:20.632Z,36.00
2018-02-22T11:44:48.032Z,30.80
2018-02-22T11:47:16.342Z,32.20
2018-02-22T11:49:43.797Z,36.10
2018-02-22T11:52:11.221Z,36.65
2018-02-22T11:54:38.642Z,26.37
2018-02-22T11:57:06.077Z,30.73
2018-02-22T11:59:34.257Z,27.00
2018-02-22T12:02:02.461Z,28.67
2018-02-22T12:04:29.954Z,29.85
2018-02-22T12:06:57.379Z,28.95
2018-02-22T12:09:24.894Z,25.27
2018-02-22T12:11:52.314Z,21.60
2018-02-22T12:14:19.834Z,22.17
2018-02-22T12:16:47.997Z,23.23
2018-02-22T12:19:15.458Z,28.23
2018-02-22T12:21:43.777Z,26.63
2018-02-22T12:24:11.178Z,24.93
2018-02-22T12:26:38.606Z,24.90
2018-02-22T12:31:40.662Z,25.00
2018-02-22T12:34:08.188Z,21.10
2018-02-22T12:36:35.583Z,20.70
2018-02-22T12:39:03.023Z,21.27
2018-02-22T12:41:30.433Z,27.67
2018-02-22T12:43:57.901Z,22.10
2018-02-22T12:46:25.301Z,24.47
2018-02-22T12:48:53.621Z,20.20
2018-02-22T12:51:21.024Z,18.42
2018-02-22T12:53:48.445Z,19.45
2018-02-22T12:56:15.862Z,18.00
2018-02-22T12:58:43.281Z,19.00
2018-02-22T13:01:10.697Z,20.03
2018-02-22T13:03:38.110Z,19.67
2018-02-22T13:06:06.295Z,22.93
2018-02-22T13:08:34.473Z,17.50
2018-02-22T13:11:02.668Z,15.83
2018-02-22T13:13:30.822Z,18.50
2018-02-22T13:15:58.321Z,17.70
2018-02-22T13:18:25.806Z,21.47
2018-02-22T13:20:53.285Z,15.33
2018-02-22T13:23:20.685Z,17.70
2018-02-22T13:25:48.113Z,16.47
2018-02-22T13:28:15.578Z,30.83
2018-02-22T13:30:43.047Z,22.73
2018-02-22T13:33:22.398Z,15.23
2018-02-22T13:35:49.826Z,15.67
2018-02-22T13:38:29.235Z,19.23
2018-02-22T13:40:56.658Z,17.30
2018-02-22T13:43:24.845Z,15.50
2018-02-22T13:45:53.017Z,19.43
2018-02-22T13:48:21.199Z,17.13
2018-02-22T13:51:00.662Z,22.40
2018-02-22T13:53:28.878Z,19.30
2018-02-22T13:55:56.290Z,21.80
2018-02-22T13:58:23.698Z,18.80
2018-02-22T14:01:03.062Z,17.93
2018-02-22T14:03:30.466Z,17.63
2018-02-22T14:05:57.895Z,18.53
2018-02-22T14:08:37.281Z,24.17
2018-02-22T14:11:04.718Z,22.13
2018-02-22T14:13:32.877Z,26.23
2018-02-22T14:16:01.083Z,26.17
2018-02-22T14:18:28.506Z,21.20
2018-02-22T14:20:56.017Z,18.50
2018-02-22T14:23:23.426Z,22.20
2018-02-22T14:25:50.838Z,15.87
2018-02-22T14:28:19.023Z,17.87
2018-02-22T14:30:47.228Z,18.45
2018-02-22T14:33:15.401Z,19.15
2018-02-22T14:35:42.893Z,18.27
2018-02-22T14:38:10.351Z,17.77
2018-02-22T14:40:37.782Z,18.00
2018-02-22T14:43:05.220Z,23.83
2018-02-22T14:45:32.644Z,18.92
2018-02-22T14:48:00.059Z,19.85
2018-02-22T14:50:27.473Z,17.95
2018-02-22T14:52:54.953Z,19.80
2018-02-22T14:55:23.141Z,18.05
2018-02-22T14:57:51.340Z,20.17
2018-02-22T15:00:18.753Z,23.58
2018-02-22T15:02:46.186Z,18.60
2018-02-22T15:05:13.590Z,18.85
2018-02-22T15:07:41.056Z,22.80
2018-02-22T15:10:08.482Z,18.48
2018-02-22T15:12:35.938Z,17.02
2018-02-22T15:15:03.419Z,16.98
2018-02-22T15:17:30.950Z,16.95
2018-02-22T15:19:59.169Z,18.75
2018-02-22T15:22:26.581Z,16.37
2018-02-22T15:24:53.995Z,17.73
2018-02-22T15:27:21.477Z,19.25
2018-02-22T15:29:48.953Z,21.23
2018-02-22T15:32:16.393Z,23.90
2018-02-22T15:34:44.582Z,22.80
2018-02-22T15:37:11.999Z,19.87
2018-02-22T15:39:39.413Z,19.60
2018-02-22T15:42:06.834Z,20.60
2018-02-22T15:44:34.248Z,14.68
2018-02-22T15:47:02.413Z,21.17
2018-02-22T15:49:30.600Z,18.45
2018-02-22T15:51:58.021Z,18.33
2018-02-22T15:54:25.433Z,21.20
2018-02-22T15:56:52.846Z,30.12
2018-02-22T15:59:20.266Z,21.80
2018-02-22T16:01:48.456Z,19.73
2018-02-22T16:04:15.982Z,21.52
2018-02-22T16:06:43.389Z,16.90
2018-02-22T16:09:10.813Z,17.02
2018-02-22T16:11:38.214Z,14.68
2018-02-22T16:14:05.747Z,17.90
2018-02-22T16:16:33.149Z,16.20
2018-02-22T16:19:00.554Z,16.02
2018-02-22T16:21:28.974Z,18.40
2018-02-22T16:23:56.366Z,18.87
2018-02-22T16:26:23.786Z,23.27
2018-02-22T16:28:51.972Z,17.75
2018-02-22T16:31:19.445Z,22.23
2018-02-22T16:33:46.861Z,17.92
2018-02-22T16:36:14.270Z,18.48
2018-02-22T16:38:42.466Z,10.43
2018-02-22T16:41:09.877Z,18.55
2018-02-22T16:43:37.290Z,18.08
2018-02-22T16:46:05.489Z,19.48
2018-02-22T16:48:33.644Z,17.20
2018-02-22T16:51:01.834Z,17.35
2018-02-22T16:53:29.262Z,18.80
2018-02-22T16:55:56.678Z,18.10
2018-02-22T16:58:24.890Z,16.00
2018-02-22T17:00:52.308Z,20.85
2018-02-22T17:03:19.737Z,22.52
2018-02-22T17:05:47.167Z,28.65
2018-02-22T17:08:15.386Z,31.10
2018-02-22T17:10:42.825Z,22.55
2018-02-22T17:13:10.987Z,12.07
2018-02-22T17:15:38.402Z,25.40
2018-02-22T17:18:05.814Z,24.67
2018-02-22T17:20:33.243Z,25.65
2018-02-22T17:23:00.715Z,28.58
2018-02-22T17:25:27.641Z,22.77
2018-02-22T17:28:01.675Z,26.75
2018-02-22T17:30:35.659Z,25.73
2018-02-22T17:33:03.060Z,16.58
2018-02-22T17:38:43.781Z,21.17
2018-02-22T17:41:11.268Z,30.30
2018-02-22T17:43:38.627Z,27.25
2018-02-22T17:46:06.077Z,27.60
2018-02-22T17:48:34.269Z,29.80
2018-02-22T17:51:02.450Z,27.83
2018-02-22T17:53:30.621Z,30.60
2018-02-22T17:55:58.806Z,32.30
2018-02-22T17:58:26.261Z,31.25
2018-02-22T18:00:54.042Z,38.22
2018-02-22T18:03:21.448Z,40.17
2018-02-22T18:05:48.870Z,30.27
2018-02-22T18:08:16.417Z,30.50
2018-02-22T18:10:43.854Z,31.33
2018-02-22T18:13:11.382Z,39.95
2018-02-22T18:15:38.808Z,35.55
2018-02-22T18:18:06.210Z,37.95
2018-02-22T18:20:33.651Z,33.30
2018-02-22T18:23:01.059Z,37.50
2018-02-22T18:25:28.470Z,47.90
2018-02-22T18:27:55.932Z,43.72
2018-02-22T18:30:24.093Z,35.97
2018-02-22T18:32:51.599Z,39.85
2018-02-22T18:35:19.009Z,42.10
2018-02-22T18:37:52.202Z,41.97
2018-02-22T18:40:25.222Z,41.08
2018-02-22T18:42:52.646Z,44.58
2018-02-22T18:45:20.074Z,43.20
2018-02-22T18:47:48.301Z,34.13
2018-02-22T18:50:15.759Z,40.78
2018-02-22T18:52:43.166Z,41.63
2018-02-22T18:55:10.592Z,37.10
2018-02-22T18:57:38.055Z,41.22
2018-02-22T19:00:05.537Z,43.10
2018-02-22T19:02:32.958Z,42.22
2018-02-22T19:05:00.374Z,42.58
2018-02-22T19:07:27.785Z,42.33
2018-02-22T19:09:55.205Z,43.50
2018-02-22T19:12:22.644Z,43.33
2018-02-22T19:14:50.834Z,46.05
2018-02-22T19:17:19.011Z,47.67
2018-02-22T19:19:47.199Z,46.37
2018-02-22T19:22:15.406Z,51.85
2018-02-22T19:24:42.833Z,47.60
2018-02-22T19:27:10.254Z,53.55
2018-02-22T19:29:37.723Z,51.37
2018-02-22T19:32:05.135Z,42.65
2018-02-22T19:34:32.553Z,46.92
2018-02-22T19:36:59.980Z,50.70
2018-02-22T19:39:27.486Z,53.75
2018-02-22T19:41:54.895Z,50.03
2018-02-22T19:44:22.327Z,50.67
2018-02-22T19:46:50.505Z,47.25
2018-02-22T19:49:18.013Z,52.83
2018-02-22T19:51:45.426Z,51.25
2018-02-22T19:54:13.628Z,42.72
2018-02-22T19:56:41.039Z,55.65
2018-02-22T19:59:08.466Z,60.63
2018-02-22T20:01:36.022Z,53.22
2018-02-22T20:05:59.394Z,56.97
2018-02-22T20:08:26.925Z,54.83
2018-02-22T20:10:54.383Z,54.27
2018-02-22T20:13:23.507Z,57.07
2018-02-22T20:15:50.921Z,59.93
2018-02-22T20:18:18.334Z,66.20
2018-02-22T20:20:45.762Z,52.80
2018-02-22T20:23:13.943Z,71.77
2018-02-22T20:25:42.119Z,65.27
2018-02-22T20:28:09.634Z,63.15
2018-02-22T20:30:37.058Z,66.13
2018-02-22T20:33:04.467Z,76.77
2018-02-22T20:35:31.943Z,64.43
2018-02-22T20:38:00.105Z,73.10
2018-02-22T20:40:28.290Z,66.30
2018-02-22T20:42:56.495Z,65.78
2018-02-22T20:45:23.958Z,76.00
2018-02-22T20:47:51.378Z,80.77
2018-02-22T20:50:18.916Z,69.43
2018-02-22T20:52:52.053Z,82.93
2018-02-22T20:55:23.389Z,69.97
2018-02-22T20:57:50.806Z,75.53
2018-02-22T21:00:18.210Z,79.63
2018-02-22T21:02:45.629Z,83.10
2018-02-22T21:05:13.094Z,83.18
2018-02-22T21:07:40.609Z,67.63
2018-02-22T21:10:08.772Z,81.37
2018-02-22T21:12:36.941Z,86.05
2018-02-22T21:15:04.367Z,77.68
2018-02-22T21:17:31.787Z,76.17
2018-02-22T21:20:00.413Z,78.20
2018-02-22T21:22:28.562Z,77.87
2018-02-22T21:24:56.882Z,72.03
2018-02-22T21:27:25.238Z,81.97
2018-02-22T21:29:52.852Z,81.67
2018-02-22T21:32:20.318Z,81.03
2018-02-22T21:34:48.500Z,71.70
2018-02-22T21:37:15.902Z,78.77
2018-02-22T21:39:43.323Z,75.07
2018-02-22T21:42:10.751Z,73.20
2018-02-22T21:44:38.168Z,76.37
2018-02-22T21:47:05.592Z,76.63
2018-02-22T21:49:33.319Z,77.20
2018-02-22T21:52:01.503Z,71.80
2018-02-22T21:54:28.918Z,122.53
2018-02-22T21:56:56.501Z,73.83
2018-02-22T21:59:24.830Z,78.43
2018-02-22T22:01:52.243Z,73.37
2018-02-22T22:04:19.720Z,79.07
2018-02-22T22:06:47.141Z,71.63
2018-02-22T22:09:14.607Z,81.07
2018-02-22T22:11:42.008Z,74.62
2018-02-22T22:14:09.423Z,78.60
2018-02-22T22:16:37.610Z,82.23
2018-02-22T22:19:05.018Z,80.17
2018-02-22T22:21:32.453Z,75.40
2018-02-22T22:23:59.879Z,87.50
2018-02-22T22:26:27.285Z,79.03
2018-02-22T22:28:55.959Z,84.10
2018-02-22T22:31:23.385Z,81.27
2018-02-22T22:33:50.826Z,72.23
2018-02-22T22:36:18.237Z,84.15
2018-02-22T22:38:45.676Z,71.20
2018-02-22T22:41:13.093Z,77.90
2018-02-22T22:43:40.498Z,82.00
2018-02-22T22:46:07.913Z,86.30
2018-02-22T22:48:36.147Z,80.33
2018-02-22T22:51:03.577Z,79.32
2018-02-22T22:53:30.994Z,76.70
2018-02-22T22:55:58.454Z,83.43
2018-02-22T22:58:25.866Z,79.80
2018-02-22T23:00:53.289Z,81.90
2018-02-22T23:03:21.585Z,76.17
2018-02-22T23:05:48.989Z,88.73
2018-02-22T23:08:16.412Z,87.03
2018-02-22T23:10:43.878Z,82.47
2018-02-22T23:13:11.370Z,80.00
2018-02-22T23:15:38.823Z,90.47
2018-02-22T23:18:06.992Z,80.03
2018-02-22T23:20:35.186Z,79.13
2018-02-22T23:23:02.598Z,77.30
2018-02-22T23:25:30.015Z,82.53
2018-02-22T23:27:58.193Z,81.60
2018-02-22T23:30:26.806Z,88.12
2018-02-22T23:32:54.214Z,79.43
2018-02-22T23:35:21.626Z,81.03
2018-02-22T23:37:49.826Z,88.22
2018-02-22T23:40:23.789Z,86.97
2018-02-22T23:42:51.210Z,77.25
2018-02-22T23:45:19.442Z,83.87
2018-02-22T23:47:46.826Z,84.03
2018-02-22T23:50:14.261Z,86.30
2018-02-22T23:52:41.713Z,77.80
2018-02-22T23:55:09.166Z,79.68
2018-02-22T23:57:36.684Z,88.50
